Time;durP1;ratioP1;P1;durP2;ratioP2;P2;SDS_P1;SDS_P2;PMS_P1;PMS_P2;Temp;Humidity;BMP_temperature;BMP_pressure;BME280_temperature;BME280_humidity;BME280_pressure;Samples;Min_cycle;Max_cycle;Signal;HPM_P1;HPM_P2
2020/12/15 00:01:06;;;;;;;65.35;19.67;;;;;;;7.12;93.84;100534.63;5052173;28;20029;-76
2020/12/15 00:03:31;;;;;;;55.55;17.27;;;;;;;7.12;93.91;100531.91;5035420;28;20025;-75
2020/12/15 00:05:57;;;;;;;54.22;20.15;;;;;;;7.10;93.77;100537.56;5053114;28;20078;-74
2020/12/15 00:08:22;;;;;;;65.18;24.17;;;;;;;7.14;93.68;100531.63;5050973;28;20037;-74
2020/12/15 00:10:47;;;;;;;69.22;24.45;;;;;;;7.15;93.96;100549.53;5051428;28;20033;-76
2020/12/15 00:13:13;;;;;;;59.28;22.98;;;;;;;7.14;93.79;100548.72;5050359;28;20028;-75
2020/12/15 00:15:38;;;;;;;50.33;20.02;;;;;;;7.15;93.94;100553.06;5052000;28;20025;-74
2020/12/15 00:18:04;;;;;;;55.75;18.98;;;;;;;7.16;93.89;100556.59;5052061;28;20090;-75
2020/12/15 00:20:30;;;;;;;53.08;19.45;;;;;;;7.17;93.98;100555.50;5049059;28;20037;-74
2020/12/15 00:22:55;;;;;;;59.90;19.75;;;;;;;7.16;93.73;100552.00;5053583;28;20028;-74
2020/12/15 00:25:21;;;;;;;71.40;24.63;;;;;;;7.16;93.57;100552.00;5035080;28;20029;-74
2020/12/15 00:27:46;;;;;;;57.22;19.50;;;;;;;7.18;94.03;100568.00;5033850;28;20021;-74
2020/12/15 00:30:12;;;;;;;58.30;22.88;;;;;;;7.16;93.70;100557.41;5049781;28;20188;-74
2020/12/15 00:32:38;;;;;;;71.53;21.08;;;;;;;7.18;93.97;100573.44;5035442;28;20029;-75
2020/12/15 00:35:03;;;;;;;62.38;21.73;;;;;;;7.17;93.63;100553.63;5050364;28;20040;-74
2020/12/15 00:37:33;;;;;;;62.95;20.20;;;;;;;7.18;93.65;100562.59;5053312;28;20041;-74
2020/12/15 00:39:59;;;;;;;57.60;20.88;;;;;;;7.19;93.62;100569.63;5050831;28;20040;-74
2020/12/15 00:42:24;;;;;;;72.32;23.60;;;;;;;7.18;93.82;100563.41;5052632;28;20021;-74
2020/12/15 00:44:49;;;;;;;72.93;23.55;;;;;;;7.18;93.97;100560.69;5050641;28;20024;-74
2020/12/15 00:47:15;;;;;;;75.95;25.38;;;;;;;7.18;93.81;100549.84;5051693;28;20029;-74
2020/12/15 00:49:40;;;;;;;49.35;17.60;;;;;;;7.20;93.60;100563.13;5051480;28;20033;-75
2020/12/15 00:52:05;;;;;;;58.35;22.85;;;;;;;7.20;93.75;100560.41;5053082;28;20032;-74
2020/12/15 00:54:31;;;;;;;53.65;22.33;;;;;;;7.20;94.01;100563.97;5051438;28;20082;-75
2020/12/15 00:56:56;;;;;;;59.28;23.08;;;;;;;7.20;93.84;100579.41;5052791;28;20032;-75
2020/12/15 00:59:22;;;;;;;59.03;21.42;;;;;;;7.20;93.74;100561.25;5046169;28;20449;-74
2020/12/15 01:01:47;;;;;;;56.25;24.90;;;;;;;7.21;93.59;100565.59;5045090;28;20025;-75
2020/12/15 01:04:12;;;;;;;73.53;21.35;;;;;;;7.20;94.43;100569.41;5050520;28;20025;-74
2020/12/15 01:06:38;;;;;;;71.97;23.77;;;;;;;7.21;93.89;100570.19;5050407;28;20025;-74
2020/12/15 01:09:04;;;;;;;68.43;21.80;;;;;;;7.21;93.51;100556.66;5049453;28;20474;-74
2020/12/15 01:11:30;;;;;;;60.63;20.90;;;;;;;7.21;93.94;100571.03;5034330;28;20470;-74
2020/12/15 01:13:55;;;;;;;69.80;21.95;;;;;;;7.20;93.64;100574.81;5049178;28;20031;-74
2020/12/15 01:16:20;;;;;;;77.68;23.08;;;;;;;7.20;93.90;100558.56;5050277;28;20029;-73
2020/12/15 01:18:46;;;;;;;81.40;27.23;;;;;;;7.21;93.67;100570.19;5051060;28;20050;-74
2020/12/15 01:21:11;;;;;;;76.22;24.83;;;;;;;7.21;93.97;100572.91;5049327;28;20028;-75
2020/12/15 01:23:36;;;;;;;73.50;22.95;;;;;;;7.23;93.97;100582.44;5049670;28;20033;-74
2020/12/15 01:26:02;;;;;;;59.75;20.55;;;;;;;7.24;94.13;100580.53;5048838;28;20035;-74
2020/12/15 01:28:27;;;;;;;76.30;26.25;;;;;;;7.24;93.83;100580.53;5052136;28;20029;-75
2020/12/15 01:30:53;;;;;;;84.30;26.45;;;;;;;7.24;93.61;100594.09;5040482;28;20136;-74
2020/12/15 01:33:18;;;;;;;79.32;26.02;;;;;;;7.25;94.05;100579.44;5051817;28;20025;-75
2020/12/15 01:35:45;;;;;;;84.25;23.75;;;;;;;7.25;93.74;100579.44;5042535;28;20025;-74
2020/12/15 01:38:10;;;;;;;92.03;28.73;;;;;;;7.25;94.13;100584.88;5044809;28;20049;-74
2020/12/15 01:40:35;;;;;;;89.85;28.92;;;;;;;7.24;93.68;100578.63;5050402;28;20492;-75
2020/12/15 01:43:01;;;;;;;89.50;29.55;;;;;;;7.26;94.08;100583.81;5050379;28;20018;-74
2020/12/15 01:45:26;;;;;;;110.38;34.20;;;;;;;7.26;93.72;100583.81;5051017;28;20067;-74
2020/12/15 01:47:51;;;;;;;92.70;28.52;;;;;;;7.25;93.69;100579.44;5049514;28;20033;-74
2020/12/15 01:50:18;;;;;;;91.15;29.15;;;;;;;7.27;93.61;100574.59;5050057;28;20040;-74
2020/12/15 01:52:43;;;;;;;99.90;29.40;;;;;;;7.27;93.83;100578.13;5050702;28;20029;-75
2020/12/15 01:55:08;;;;;;;98.90;31.08;;;;;;;7.28;93.71;100577.06;5040375;28;20033;-74
2020/12/15 01:57:34;;;;;;;92.15;28.30;;;;;;;7.28;93.59;100573.50;5048539;28;20017;-74
2020/12/15 01:59:59;;;;;;;74.13;22.05;;;;;;;7.29;93.97;100569.75;5048732;28;20041;-75
2020/12/15 02:02:25;;;;;;;87.45;23.13;;;;;;;7.29;93.49;100580.59;5041977;28;20020;-75
2020/12/15 02:04:50;;;;;;;102.72;33.03;;;;;;;7.28;93.72;100576.22;5049233;28;20486;-75
2020/12/15 02:07:17;;;;;;;95.38;28.80;;;;;;;7.27;93.84;100577.31;5048626;28;20032;-75
2020/12/15 02:09:42;;;;;;;104.68;31.75;;;;;;;7.27;93.45;100580.84;5049821;28;20029;-75
2020/12/15 02:12:08;;;;;;;104.35;32.28;;;;;;;7.26;94.04;100570.25;5033963;28;20080;-75
2020/12/15 02:14:33;;;;;;;97.32;30.98;;;;;;;7.26;93.86;100562.94;5031636;28;20021;-75
2020/12/15 02:16:59;;;;;;;89.85;26.67;;;;;;;7.26;93.79;100564.84;5043733;28;20021;-75
2020/12/15 02:19:24;;;;;;;98.00;30.50;;;;;;;7.26;93.51;100568.34;5030688;28;20158;-75
2020/12/15 02:21:56;;;;;;;92.05;26.65;;;;;;;7.26;93.81;100556.69;5050312;28;20032;-76
2020/12/15 02:24:21;;;;;;;112.13;30.85;;;;;;;7.24;93.75;100565.06;5047247;28;20021;-76
2020/12/15 02:26:47;;;;;;;107.57;32.17;;;;;;;7.24;93.48;100564.25;5048908;28;20052;-74
2020/12/15 02:29:13;;;;;;;77.10;23.77;;;;;;;7.24;93.76;100570.50;5047904;28;20036;-74
2020/12/15 02:31:38;;;;;;;110.22;33.00;;;;;;;7.24;93.50;100575.09;5048844;28;20036;-75
2020/12/15 02:34:04;;;;;;;84.88;27.42;;;;;;;7.26;93.72;100562.13;5050633;28;20162;-74
2020/12/15 02:36:29;;;;;;;65.40;20.80;;;;;;;7.26;93.64;100572.97;5024356;28;20086;-74
2020/12/15 02:39:05;;;;;;;99.57;31.55;;;;;;;7.26;94.05;100552.09;5047886;28;20510;-75
2020/12/15 02:41:30;;;;;;;88.22;30.83;;;;;;;7.25;93.84;100566.69;5056552;28;20097;-75
2020/12/15 02:43:55;;;;;;;74.43;25.70;;;;;;;7.25;93.98;100568.59;5054073;28;20354;-75
2020/12/15 02:46:21;;;;;;;82.28;25.88;;;;;;;7.25;93.90;100582.16;5055233;28;20131;-74
2020/12/15 02:48:46;;;;;;;109.68;31.48;;;;;;;7.24;93.93;100575.09;5054576;28;20051;-74
2020/12/15 02:51:12;;;;;;;98.60;29.60;;;;;;;7.23;93.76;100562.59;5055452;28;20060;-74
2020/12/15 02:53:38;;;;;;;113.53;32.45;;;;;;;7.23;93.99;100570.75;5054178;28;20466;-74
2020/12/15 02:56:04;;;;;;;84.05;25.48;;;;;;;7.23;93.77;100571.59;5051873;28;20044;-75
2020/12/15 02:58:29;;;;;;;91.93;27.50;;;;;;;7.23;93.62;100573.44;5052401;28;20017;-75
2020/12/15 03:00:54;;;;;;;97.07;28.83;;;;;;;7.23;93.65;100568.03;5053826;28;20111;-75
2020/12/15 03:03:20;;;;;;;70.90;21.58;;;;;;;7.24;93.75;100569.69;5047066;28;20033;-74
2020/12/15 03:05:45;;;;;;;84.72;24.65;;;;;;;7.25;93.94;100565.88;5054845;28;20033;-74
2020/12/15 03:08:11;;;;;;;79.70;23.08;;;;;;;7.25;93.67;100565.88;5053262;28;20040;-74
2020/12/15 03:10:36;;;;;;;78.55;21.25;;;;;;;7.25;94.08;100563.19;5054706;28;20025;-75
2020/12/15 03:13:01;;;;;;;120.57;30.30;;;;;;;7.25;93.88;100560.47;5052717;28;20493;-75
2020/12/15 03:15:27;;;;;;;125.82;35.55;;;;;;;7.26;93.61;100556.69;5054553;28;20081;-75
2020/12/15 03:17:52;;;;;;;103.38;30.27;;;;;;;7.27;94.07;100571.88;5052600;28;20398;-75
2020/12/15 03:20:17;;;;;;;95.28;27.23;;;;;;;7.25;94.10;100582.97;5047938;28;20029;-75
2020/12/15 03:22:43;;;;;;;95.78;27.77;;;;;;;7.26;93.90;100591.94;5051550;28;20037;-75
2020/12/15 03:25:08;;;;;;;66.40;19.92;;;;;;;7.25;93.83;100587.59;5054883;28;20020;-75
2020/12/15 03:27:34;;;;;;;108.93;30.52;;;;;;;7.25;94.05;100582.16;5052458;28;20029;-74
2020/12/15 03:29:59;;;;;;;114.80;31.77;;;;;;;7.26;94.05;100583.81;5053429;28;20027;-75
2020/12/15 03:32:25;;;;;;;103.15;32.72;;;;;;;7.26;94.03;100581.91;5047263;28;20025;-75
2020/12/15 03:34:50;;;;;;;104.60;29.35;;;;;;;7.27;93.77;100588.16;5052263;28;20482;-75
2020/12/15 03:37:15;;;;;;;110.72;32.25;;;;;;;7.26;93.86;100591.94;5052646;28;20538;-75
2020/12/15 03:39:41;;;;;;;128.02;33.85;;;;;;;7.25;93.69;100599.25;5053033;28;20032;-75
2020/12/15 03:42:06;;;;;;;137.15;37.55;;;;;;;7.25;94.23;100593.00;5053665;28;20391;-74
2020/12/15 03:44:31;;;;;;;139.73;33.97;;;;;;;7.24;94.07;100583.25;5052747;28;20138;-75
2020/12/15 03:46:57;;;;;;;133.68;33.42;;;;;;;7.23;94.03;100592.44;5051818;28;20165;-75
2020/12/15 03:49:22;;;;;;;131.77;32.20;;;;;;;7.21;93.80;100597.31;5051512;28;20033;-75
2020/12/15 03:51:48;;;;;;;134.52;31.88;;;;;;;7.19;93.70;100594.03;5051822;28;20075;-74
2020/12/15 03:54:13;;;;;;;115.68;28.75;;;;;;;7.20;93.78;100591.09;5053269;28;20041;-74
2020/12/15 03:56:38;;;;;;;77.15;21.35;;;;;;;7.20;94.04;100601.94;5053692;28;20029;-76
2020/12/15 03:59:04;;;;;;;153.65;34.13;;;;;;;7.20;93.70;100590.25;5047294;28;20475;-74
2020/12/15 04:01:29;;;;;;;104.97;26.90;;;;;;;7.19;94.00;100589.44;5043416;28;20032;-75
2020/12/15 04:03:55;;;;;;;147.32;32.22;;;;;;;7.18;93.82;100593.22;5051981;28;20470;-75
2020/12/15 04:06:20;;;;;;;103.65;25.63;;;;;;;7.17;94.01;100586.16;5052507;28;20033;-74
2020/12/15 04:08:45;;;;;;;120.22;27.35;;;;;;;7.16;93.80;100583.72;5052962;28;20032;-74
2020/12/15 04:11:11;;;;;;;129.57;29.67;;;;;;;7.16;93.94;100591.84;5053634;28;20039;-74
2020/12/15 04:13:36;;;;;;;118.82;27.63;;;;;;;7.15;94.08;100582.06;5051655;28;20479;-74
2020/12/15 04:16:02;;;;;;;140.05;29.80;;;;;;;7.15;93.90;100577.47;5051517;28;20032;-74
2020/12/15 04:18:27;;;;;;;131.40;29.17;;;;;;;7.13;94.03;100584.22;5047255;28;20363;-75
2020/12/15 04:20:53;;;;;;;159.65;30.05;;;;;;;7.12;93.85;100594.25;5046343;28;20025;-75
2020/12/15 04:23:18;;;;;;;124.28;24.95;;;;;;;7.10;94.15;100580.94;5052456;28;20478;-76
2020/12/15 04:25:52;;;;;;;222.82;36.60;;;;;;;7.10;94.18;100570.09;5051754;28;20036;-74
2020/12/15 04:28:17;;;;;;;135.45;24.52;;;;;;;7.09;93.88;100573.06;5043241;28;20083;-76
2020/12/15 04:30:44;;;;;;;334.75;47.83;;;;;;;7.07;93.98;100578.75;5051821;28;20028;-75
2020/12/15 04:33:10;;;;;;;333.20;49.65;;;;;;;7.07;93.98;100573.31;5051942;28;20036;-75
2020/12/15 04:35:35;;;;;;;201.75;26.45;;;;;;;7.06;93.98;100574.38;5050117;28;20060;-75
2020/12/15 04:38:00;;;;;;;391.33;50.92;;;;;;;7.06;94.28;100573.56;5049850;28;20048;-75
2020/12/15 04:40:26;;;;;;;241.60;34.95;;;;;;;7.06;94.18;100570.84;5047219;28;20032;-75
2020/12/15 04:42:51;;;;;;;255.48;36.97;;;;;;;7.03;93.98;100569.47;5027873;28;20032;-75
2020/12/15 04:45:17;;;;;;;304.00;44.97;;;;;;;7.05;94.43;100575.47;5035643;28;20029;-75
2020/12/15 04:47:42;;;;;;;161.02;23.75;;;;;;;7.05;93.84;100578.19;5031321;28;20025;-75
2020/12/15 04:50:10;;;;;;;311.75;44.50;;;;;;;7.03;93.89;100569.47;5051838;28;20431;-75
2020/12/15 04:52:52;;;;;;;322.20;43.42;;;;;;;7.03;94.17;100564.06;5051251;28;20036;-74
2020/12/15 04:55:18;;;;;;;250.80;38.05;;;;;;;7.05;94.27;100561.91;5034965;28;20544;-75
2020/12/15 04:57:45;;;;;;;222.13;33.92;;;;;;;7.03;93.95;100564.06;5050737;28;20048;-75
2020/12/15 05:00:10;;;;;;;255.20;38.45;;;;;;;7.03;94.34;100563.25;5052413;28;20634;-75
2020/12/15 05:02:42;;;;;;;244.02;33.20;;;;;;;7.02;94.01;100569.75;5051599;28;20029;-74
2020/12/15 05:05:08;;;;;;;;;;;;;;;7.01;94.10;100574.34;5053221;28;20029;-74
2020/12/15 05:07:41;;;;;;;177.90;26.88;;;;;;;6.99;94.23;100565.66;5051901;28;19995;-74
2020/12/15 05:10:07;;;;;;;275.77;35.85;;;;;;;6.96;93.96;100577.00;5050696;28;20051;-74
2020/12/15 05:12:33;;;;;;;320.75;38.17;;;;;;;6.95;94.01;100569.94;5033617;28;20021;-75
2020/12/15 05:14:58;;;;;;;265.70;33.38;;;;;;;6.95;94.03;100574.53;5052749;28;20098;-74
2020/12/15 05:17:32;;;;;;;405.65;44.65;;;;;;;6.93;94.13;100566.69;5040792;28;20493;-75
2020/12/15 05:19:58;;;;;;;285.58;36.25;;;;;;;6.94;94.43;100581.84;5049673;28;20021;-75
2020/12/15 05:22:24;;;;;;;155.63;19.30;;;;;;;6.93;94.63;100572.09;5052198;28;20100;-75
2020/12/15 05:24:49;;;;;;;256.40;32.47;;;;;;;6.92;94.55;100570.44;5051638;28;20470;-75
2020/12/15 05:27:16;;;;;;;206.57;26.80;;;;;;;6.92;94.43;100578.56;5035150;28;20040;-75
2020/12/15 05:29:41;;;;;;;381.35;41.10;;;;;;;6.91;94.43;100571.53;5039476;28;20542;-75
2020/12/15 05:32:07;;;;;;;296.73;35.40;;;;;;;6.91;94.41;100571.53;5052345;28;20040;-74
2020/12/15 05:34:33;;;;;;;329.25;36.92;;;;;;;6.92;94.61;100573.16;5050610;28;20045;-75
2020/12/15 05:36:59;;;;;;;346.02;42.35;;;;;;;6.91;94.40;100576.94;5050226;28;20053;-75
2020/12/15 05:39:25;;;;;;;197.23;32.20;;;;;;;6.92;94.71;100589.41;5051181;28;20059;-74
2020/12/15 05:42:06;;;;;;;110.32;23.30;;;;;;;6.95;94.53;100577.25;5051921;28;20052;-75
2020/12/15 05:44:35;;;;;;;138.27;27.97;;;;;;;6.97;94.75;100591.38;5049484;28;20033;-75
2020/12/15 05:47:03;;;;;;;136.10;28.77;;;;;;;6.99;94.66;100595.47;5049496;28;20101;-75
2020/12/15 05:49:30;;;;;;;137.25;27.75;;;;;;;7.00;94.67;100569.19;5046025;28;20028;-75
2020/12/15 05:51:55;;;;;;;110.18;24.20;;;;;;;7.00;94.72;100583.53;5050572;28;20375;-74
2020/12/15 05:54:20;;;;;;;130.07;29.85;;;;;;;7.00;94.37;100591.66;5050461;28;20048;-75
2020/12/15 05:56:46;;;;;;;142.07;30.38;;;;;;;7.01;94.78;100587.91;5045218;28;20036;-74
2020/12/15 05:59:20;;;;;;;111.50;26.33;;;;;;;7.02;94.50;100594.94;5049995;28;20028;-74
2020/12/15 06:01:53;;;;;;;132.05;31.08;;;;;;;7.02;94.69;100567.84;5049240;28;20025;-73
2020/12/15 06:04:19;;;;;;;111.15;28.73;;;;;;;7.02;94.29;100578.69;5037025;28;20030;-74
2020/12/15 06:06:45;;;;;;;127.28;29.83;;;;;;;7.03;94.33;100565.94;5025667;28;20083;-73
2020/12/15 06:09:12;;;;;;;124.95;32.80;;;;;;;7.04;94.61;100560.28;5050955;28;20067;-74
2020/12/15 06:11:39;;;;;;;103.30;28.48;;;;;;;7.06;94.17;100558.13;5050412;28;20021;-73
2020/12/15 06:14:05;;;;;;;105.22;28.85;;;;;;;7.08;94.35;100564.09;5039591;28;20386;-74
2020/12/15 06:16:30;;;;;;;67.43;20.33;;;;;;;7.08;94.21;100550.56;5050569;28;20021;-73
2020/12/15 06:18:55;;;;;;;94.22;27.63;;;;;;;7.10;94.63;100563.88;5070870;28;20478;-74
2020/12/15 06:21:21;;;;;;;100.70;27.73;;;;;;;7.10;94.44;100559.25;5050654;28;20405;-74
2020/12/15 06:23:46;;;;;;;79.63;25.65;;;;;;;7.11;94.36;100574.44;5048616;28;20039;-74
2020/12/15 06:26:12;;;;;;;89.00;26.65;;;;;;;7.12;94.62;100564.44;5067024;28;20029;-74
2020/12/15 06:28:37;;;;;;;78.90;25.63;;;;;;;7.11;94.42;100547.31;5044926;28;20048;-74
2020/12/15 06:31:02;;;;;;;51.67;17.85;;;;;;;7.13;94.14;100548.97;5046791;28;20083;-75
2020/12/15 06:33:34;;;;;;;57.38;20.23;;;;;;;7.14;94.15;100542.47;5050918;28;20028;-74
2020/12/15 06:36:00;;;;;;;54.63;16.27;;;;;;;7.16;94.39;100538.44;5032248;28;20032;-75
2020/12/15 06:38:25;;;;;;;54.50;20.02;;;;;;;7.19;94.32;100564.22;5032426;28;20041;-73
2020/12/15 06:40:50;;;;;;;60.47;20.25;;;;;;;7.20;94.13;100557.72;5024675;28;20029;-74
2020/12/15 06:43:29;;;;;;;50.97;16.60;;;;;;;7.20;93.96;100565.84;5046511;28;20027;-74
2020/12/15 06:46:06;;;;;;;74.93;24.38;;;;;;;7.17;94.24;100555.50;5040037;28;20076;-74
2020/12/15 06:48:33;;;;;;;67.57;25.08;;;;;;;7.19;94.00;100558.78;5046108;28;20037;-74
2020/12/15 06:50:58;;;;;;;64.70;23.38;;;;;;;7.19;94.06;100553.38;5050118;28;20021;-75
2020/12/15 06:53:24;;;;;;;53.42;19.38;;;;;;;7.19;94.19;100546.03;5041225;28;20040;-75
2020/12/15 06:55:58;;;;;;;72.72;26.35;;;;;;;7.21;94.29;100545.81;5050343;28;20029;-74
2020/12/15 06:58:24;;;;;;;57.58;23.15;;;;;;;7.23;94.03;100546.34;5049459;28;20315;-74
2020/12/15 07:00:49;;;;;;;68.60;23.80;;;;;;;7.22;94.04;100561.81;5047174;28;20036;-75
2020/12/15 07:03:15;;;;;;;78.63;26.60;;;;;;;7.23;93.87;100557.19;5042874;28;20033;-75
2020/12/15 07:05:40;;;;;;;59.25;20.45;;;;;;;7.23;93.86;100559.91;5065726;28;20029;-75
2020/12/15 07:08:08;;;;;;;58.63;22.48;;;;;;;7.24;94.14;100564.25;5048527;28;20036;-75
2020/12/15 07:10:33;;;;;;;65.32;21.02;;;;;;;7.23;94.11;100563.44;5078350;28;20060;-74
2020/12/15 07:12:59;;;;;;;56.30;20.10;;;;;;;7.23;93.83;100552.59;5065609;28;20048;-75
2020/12/15 07:15:28;;;;;;;68.72;21.92;;;;;;;7.25;93.98;100555.03;5074068;28;20439;-75
2020/12/15 07:17:53;;;;;;;70.72;23.23;;;;;;;7.25;94.07;100565.88;5047147;28;20029;-74
2020/12/15 07:20:19;;;;;;;60.38;22.00;;;;;;;7.26;94.10;100552.09;5048911;28;20029;-75
2020/12/15 07:22:45;;;;;;;62.78;23.13;;;;;;;7.26;93.76;100545.84;5046634;28;20525;-72
2020/12/15 07:25:10;;;;;;;55.08;19.88;;;;;;;7.27;93.73;100553.72;5049354;28;20025;-72
2020/12/15 07:27:37;;;;;;;60.38;19.48;;;;;;;7.27;93.83;100547.47;5053979;28;20485;-75
2020/12/15 07:30:05;;;;;;;53.60;20.48;;;;;;;7.28;93.65;100554.53;5051978;28;20057;-76
2020/12/15 07:32:31;;;;;;;59.28;22.88;;;;;;;7.28;94.05;100555.38;5052931;28;20029;-76
2020/12/15 07:35:00;;;;;;;50.05;18.58;;;;;;;7.28;94.09;100568.09;5053405;28;20114;-76
2020/12/15 07:37:26;;;;;;;42.90;17.55;;;;;;;7.29;93.63;100567.03;5050766;28;20513;-76
2020/12/15 07:39:51;;;;;;;41.55;15.98;;;;;;;7.31;93.53;100581.13;5050411;28;20041;-76
2020/12/15 07:42:17;;;;;;;47.05;18.08;;;;;;;7.32;93.50;100566.50;5065951;28;20035;-76
2020/12/15 07:44:43;;;;;;;38.10;16.17;;;;;;;7.32;93.65;100555.66;5048126;28;20458;-77
2020/12/15 07:47:08;;;;;;;36.80;15.60;;;;;;;7.34;93.83;100556.22;5051041;28;20033;-76
2020/12/15 07:49:34;;;;;;;30.33;13.45;;;;;;;7.35;93.49;100568.69;5050278;28;20029;-76
2020/12/15 07:51:59;;;;;;;44.40;18.90;;;;;;;7.34;93.40;100564.38;5052041;28;20021;-76
2020/12/15 07:54:25;;;;;;;33.72;14.07;;;;;;;7.33;93.68;100562.72;5051270;28;20075;-76
2020/12/15 07:56:52;;;;;;;45.97;16.48;;;;;;;7.32;93.43;100555.66;5049447;28;20020;-76
2020/12/15 07:59:17;;;;;;;48.67;18.52;;;;;;;7.31;93.37;100565.69;5048217;28;20509;-76
2020/12/15 08:01:43;;;;;;;42.05;17.73;;;;;;;7.29;93.27;100545.34;5047488;28;20020;-76
2020/12/15 08:04:10;;;;;;;28.30;12.77;;;;;;;7.28;93.40;100568.09;5047864;28;20040;-77
2020/12/15 08:06:39;;;;;;;33.15;12.13;;;;;;;7.27;93.58;100569.16;5045986;28;20097;-79
2020/12/15 08:09:05;;;;;;;50.22;18.70;;;;;;;7.24;93.35;100569.69;5079424;28;20028;-78
2020/12/15 08:11:30;;;;;;;46.30;18.15;;;;;;;7.23;93.33;100568.88;5046239;28;20394;-77
2020/12/15 08:13:56;;;;;;;67.82;20.80;;;;;;;7.23;93.72;100568.88;5046344;28;20028;-76
2020/12/15 08:16:21;;;;;;;49.30;18.10;;;;;;;7.23;93.68;100568.03;5072560;28;20362;-77
2020/12/15 08:18:48;;;;;;;41.25;14.90;;;;;;;7.24;93.63;100564.25;5047876;28;20106;-77
2020/12/15 08:21:17;;;;;;;38.45;15.48;;;;;;;7.23;93.36;100559.91;5078997;28;20153;-76
2020/12/15 08:23:52;;;;;;;41.95;15.05;;;;;;;7.23;93.48;100558.03;5044115;28;20028;-76
2020/12/15 08:26:18;;;;;;;44.08;14.60;;;;;;;7.25;93.71;100538.78;5048234;28;20047;-76
2020/12/15 08:28:47;;;;;;;44.05;15.10;;;;;;;7.24;93.61;100564.25;5047219;28;20021;-77
2020/12/15 08:31:12;;;;;;;38.90;13.63;;;;;;;7.25;93.66;100552.34;5046889;28;20041;-77
2020/12/15 08:33:38;;;;;;;54.33;17.83;;;;;;;7.23;93.39;100558.03;5044868;28;20305;-77
2020/12/15 08:36:03;;;;;;;53.78;17.98;;;;;;;7.24;93.64;100553.41;5047109;28;20032;-77
2020/12/15 08:38:28;;;;;;;51.15;18.40;;;;;;;7.23;93.65;100562.59;5044990;28;20068;-77
2020/12/15 08:40:56;;;;;;;51.65;15.52;;;;;;;7.24;93.45;100565.06;5047573;28;20029;-77
2020/12/15 08:43:22;;;;;;;37.85;14.30;;;;;;;7.24;93.83;100564.25;5027708;28;20395;-77
2020/12/15 08:45:47;;;;;;;34.70;13.38;;;;;;;7.24;93.87;100558.84;5046353;28;20028;-77
2020/12/15 08:48:17;;;;;;;44.40;15.65;;;;;;;7.23;93.67;100557.19;5046823;28;20029;-77
2020/12/15 08:50:42;;;;;;;45.15;16.13;;;;;;;7.23;93.70;100568.03;5046156;28;20108;-77
2020/12/15 08:53:08;;;;;;;36.35;12.13;;;;;;;7.26;93.78;100570.25;5028822;28;20025;-77
2020/12/15 08:55:33;;;;;;;47.47;15.35;;;;;;;7.26;93.68;100565.66;5047228;28;20029;-78
2020/12/15 08:57:59;;;;;;;46.47;17.00;;;;;;;7.27;93.38;100552.91;5044628;28;20090;-77
2020/12/15 09:00:25;;;;;;;40.42;12.60;;;;;;;7.28;93.36;100568.94;5048738;28;20494;-78
2020/12/15 09:02:51;;;;;;;39.05;13.65;;;;;;;7.29;93.73;100546.16;5047256;28;20028;-78
2020/12/15 09:05:16;;;;;;;50.22;17.98;;;;;;;7.30;93.51;100568.66;5047443;28;20033;-77
2020/12/15 09:07:41;;;;;;;43.05;15.45;;;;;;;7.32;93.64;100566.50;5049570;28;20051;-76
2020/12/15 09:10:11;;;;;;;50.80;15.85;;;;;;;7.32;93.43;100574.66;5046043;28;20044;-76
2020/12/15 09:12:36;;;;;;;56.13;18.50;;;;;;;7.32;93.60;100563.81;5051309;28;20339;-77
2020/12/15 09:15:03;;;;;;;37.58;13.45;;;;;;;7.31;93.69;100552.13;5045018;28;20016;-76
2020/12/15 09:17:29;;;;;;;54.55;19.60;;;;;;;7.31;93.65;100554.84;5050792;28;20517;-77
2020/12/15 09:19:54;;;;;;;43.85;15.45;;;;;;;7.31;93.27;100548.59;5047856;28;20078;-76
2020/12/15 09:22:19;;;;;;;51.83;17.88;;;;;;;7.32;93.50;100544.81;5050845;28;20025;-77
2020/12/15 09:24:46;;;;;;;41.35;14.27;;;;;;;7.32;93.59;100555.66;5049030;28;20033;-77
2020/12/15 09:27:22;;;;;;;34.35;12.25;;;;;;;7.31;93.63;100554.84;5050744;28;20039;-76
2020/12/15 09:29:47;;;;;;;49.05;14.40;;;;;;;7.32;93.55;100561.09;5049679;28;20064;-77
2020/12/15 09:32:13;;;;;;;32.13;13.75;;;;;;;7.30;93.45;100536.94;5047797;28;20037;-77
2020/12/15 09:34:38;;;;;;;43.17;15.23;;;;;;;7.32;93.22;100539.41;5049357;28;20036;-76
2020/12/15 09:37:03;;;;;;;57.78;20.63;;;;;;;7.30;93.70;100547.78;5050722;28;20045;-76
2020/12/15 09:39:29;;;;;;;39.20;12.35;;;;;;;7.30;93.59;100531.50;5034272;28;20521;-76
2020/12/15 09:42:02;;;;;;;35.95;12.77;;;;;;;7.31;93.43;100537.75;5046835;28;20032;-77
2020/12/15 09:44:28;;;;;;;52.95;18.02;;;;;;;7.31;93.30;100541.28;5041542;28;20029;-77
2020/12/15 09:46:53;;;;;;;33.47;11.93;;;;;;;7.31;93.46;100537.75;5029636;28;20021;-77
2020/12/15 09:49:18;;;;;;;35.17;12.88;;;;;;;7.32;93.69;100550.25;5047270;28;20049;-79
2020/12/15 09:51:44;;;;;;;52.70;17.40;;;;;;;7.32;93.50;100536.69;5050049;28;20059;-77
2020/12/15 09:54:09;;;;;;;35.42;14.23;;;;;;;7.32;93.73;100550.25;5048286;28;20043;-76
2020/12/15 09:56:35;;;;;;;48.08;16.42;;;;;;;7.31;93.73;100533.16;5049165;28;20020;-77
2020/12/15 09:59:01;;;;;;;43.83;15.65;;;;;;;7.31;93.83;100535.88;5050537;28;20074;-76
2020/12/15 10:01:26;;;;;;;41.83;14.70;;;;;;;7.33;93.62;100533.69;5049634;28;20025;-76
2020/12/15 10:03:51;;;;;;;40.05;14.50;;;;;;;7.33;93.63;100522.03;5047698;28;20470;-77
2020/12/15 10:06:17;;;;;;;44.60;17.52;;;;;;;7.33;93.22;100527.47;5078578;28;20394;-77
2020/12/15 10:08:43;;;;;;;41.85;15.02;;;;;;;7.32;93.57;100523.94;5048478;28;20397;-77
2020/12/15 10:11:15;;;;;;;44.80;14.70;;;;;;;7.33;93.85;100520.13;5048282;28;20021;-77
2020/12/15 10:13:41;;;;;;;50.13;15.55;;;;;;;7.32;93.47;100533.97;5048687;28;20021;-77
2020/12/15 10:16:06;;;;;;;44.95;16.25;;;;;;;7.31;93.53;100522.31;5048105;28;20044;-77
2020/12/15 10:18:32;;;;;;;35.33;13.98;;;;;;;7.31;94.02;100505.19;5051121;28;20029;-77
2020/12/15 10:20:57;;;;;;;39.25;15.10;;;;;;;7.32;94.00;100518.50;5049648;28;20371;-77
2020/12/15 10:23:22;;;;;;;42.75;14.63;;;;;;;7.31;93.51;100521.47;5048345;28;20025;-77
2020/12/15 10:25:48;;;;;;;39.33;15.02;;;;;;;7.30;93.64;100498.16;5047505;28;20347;-77
2020/12/15 10:28:13;;;;;;;41.17;16.02;;;;;;;7.33;93.55;100508.47;5049382;28;20043;-76
2020/12/15 10:30:39;;;;;;;59.15;20.15;;;;;;;7.33;93.64;100503.06;5046693;28;20020;-76
2020/12/15 10:33:07;;;;;;;47.92;16.38;;;;;;;7.32;93.51;100504.94;5049604;28;20025;-76
2020/12/15 10:35:32;;;;;;;59.28;19.20;;;;;;;7.32;93.65;100514.97;5049435;28;20112;-77
2020/12/15 10:37:57;;;;;;;31.35;11.73;;;;;;;7.33;93.63;100497.63;5037656;28;20098;-77
2020/12/15 10:40:23;;;;;;;42.78;17.17;;;;;;;7.32;93.52;100510.38;5047382;28;20067;-77
2020/12/15 10:42:48;;;;;;;42.33;16.23;;;;;;;7.33;93.87;100498.44;5049391;28;20013;-77
2020/12/15 10:45:14;;;;;;;35.22;13.57;;;;;;;7.33;93.59;100500.34;5043483;28;20066;-77
2020/12/15 10:47:39;;;;;;;47.17;16.67;;;;;;;7.31;93.59;100516.03;5079676;28;20405;-77
2020/12/15 10:50:05;;;;;;;38.78;14.32;;;;;;;7.29;93.88;100493.81;5032264;28;20033;-77
2020/12/15 10:52:30;;;;;;;39.85;14.95;;;;;;;7.29;93.86;100480.25;5049720;28;20070;-77
2020/12/15 10:54:56;;;;;;;47.35;16.10;;;;;;;7.28;94.02;100489.44;5044924;28;20040;-77
2020/12/15 10:57:21;;;;;;;30.45;10.70;;;;;;;7.26;93.77;100506.00;5049235;28;20029;-77
2020/12/15 10:59:47;;;;;;;37.08;13.88;;;;;;;7.24;93.93;100513.56;5048403;28;20597;-76
2020/12/15 11:02:13;;;;;;;32.38;12.13;;;;;;;7.24;93.84;100499.19;5053266;28;20009;-76
2020/12/15 11:04:38;;;;;;;34.45;11.95;;;;;;;7.23;93.71;100502.97;5050974;28;20090;-76
2020/12/15 11:07:04;;;;;;;27.25;10.93;;;;;;;7.22;93.94;100495.91;5049108;28;20044;-76
2020/12/15 11:09:29;;;;;;;21.00;8.68;;;;;;;7.21;93.92;100499.72;5050175;28;20027;-78